PASV/SVW METAR and TAF weather

Enter ICAO airport designator
Station Type Date Time Source
PASV METAR 2024/05/28 21:55 UTC NOAA

PASV 282155Z AUTO 15007KT 10SM OVC065 14/M01 A2977 RMK AO2 SLP082 T01361007


Station Type Date Time Source
PASV Decoded METAR 2024/05/28 21:55 UTC NOAA

Sparrevohn Airways Facilities Sector, AK, United States (PASV) 61-06N 155-34W
May 28, 2024 - 05:55 PM EDT / 2024.05.28 2155 UTC
Wind: from the SSE (150 degrees) at 8 MPH (7 KT):0
Visibility: 10 mile(s):0
Sky conditions: overcast
Temperature: 56.5 F (13.6 C)
Dew Point: 30.7 F (-0.7 C)
Relative Humidity: 37%
Pressure (altimeter): 29.77 in. Hg (1008 hPa)
ob: PASV 282155Z AUTO 15007KT 10SM OVC065 14/M01 A2977 RMK AO2 SLP082 T01361007
cycle: 22

Station Type Date Time Source
PASV TAF 2012/01/12 14:57 UTC NOAA